Aviation Digital Data Service (ADDS)

Output produced by METARs form (0921 UTC 24 October 2017)
found at http://aviationweather.gov/adds/metars/
 
KTOL 240539Z 2406/2506 24013G20KT P6SM SCT015 OVC050 
     TEMPO 2406/2408 5SM -SHRA OVC015 
     FM241100 22012KT P6SM BKN015 OVC040 
     TEMPO 2411/2415 5SM -SHRA OVC015 
     FM241500 22015G25KT P6SM VCSH BKN025 
     FM241700 22015G25KT P6SM BKN035 
     FM250100 24012KT 6SM -SHRA OVC015